Terminal Aerodrome Forecast
Issued by NWS

Home | Current Version | Previous Version | Graphics & Text | Print | Product List | Glossary On
Versions: 1 2 3 4 5 6 7 8 9 10 11 12 13 14 15 16 17
000
FTUS43 KTOP 302300
TAFFOE
TAF
KFOE 302320Z 3100/3124 16007KT P6SM OVC150
     FM310900 18006KT P6SM -SHRA BKN023 OVC040
     FM311100 17006KT 4SM -RA BKN013 OVC025
     FM311600 15009KT 3SM -RA BR OVC007=

USA.gov is the U.S. government's official web portal to all federal, state and local government web resources and services.